Bonhill, United Kingdom
Current Conditions -  °F | °C
As of 6:20 AM on Saturday 25 Oct 2014 (Local Time) from EGPF Reporting Station
Light Rain Light Rain  
Wind Chill: 50°   Ceiling: 1700
Heat Index: 50°   Visibility: 6mi
Dew Point: 46°   Wind: 20mph
Humidity: 87%   Direction: 210°SSW
Pressure: 29.68"   Gusts: NA
Location:  55.98°N, 4.56°W
Report Text: EGPF 250520Z AUTO 21017KT 9999 -RA BKN017/// OVC033/// //////TCU 10/08 Q1005
Loading
Personal Weather Stations






























Interactive Weather Map
Tropical Storm Tracking
New forecast layout! Learn more

10-Day Weather Forecast

Advertisements
Track Severe Weather on mobile